Time;durP1;ratioP1;P1;durP2;ratioP2;P2;SDS_P1;SDS_P2;PMS_P1;PMS_P2;Temp;Humidity;BMP_temperature;BMP_pressure;BME280_temperature;BME280_humidity;BME280_pressure;Samples;Min_cycle;Max_cycle;Signal;HPM_P1;HPM_P2
2024/01/11 00:00:03;;;;;;;32.85;30.63;;;;;;;;;;5036682;28;20447;-59
2024/01/11 00:02:28;;;;;;;37.17;34.40;;;;;;;;;;5030840;28;20029;-59
2024/01/11 00:04:54;;;;;;;34.20;30.63;;;;;;;;;;5016021;28;20448;-59
2024/01/11 00:07:19;;;;;;;34.38;32.33;;;;;;;;;;5025928;28;20018;-59
2024/01/11 00:09:44;;;;;;;32.72;30.48;;;;;;;;;;5031037;28;20037;-60
2024/01/11 00:12:09;;;;;;;30.95;28.60;;;;;;;;;;5032578;28;20036;-59
2024/01/11 00:14:35;;;;;;;33.78;31.80;;;;;;;;;;5028929;28;20051;-66
2024/01/11 00:17:01;;;;;;;32.50;30.50;;;;;;;;;;5032754;28;20037;-67
2024/01/11 00:19:27;;;;;;;34.13;31.92;;;;;;;;;;5030897;28;20243;-67
2024/01/11 00:21:52;;;;;;;32.00;30.05;;;;;;;;;;5031821;28;20068;-59
2024/01/11 00:24:17;;;;;;;34.55;32.13;;;;;;;;;;5031903;28;20636;-59
2024/01/11 00:26:43;;;;;;;34.65;32.30;;;;;;;;;;5032241;28;20106;-59
2024/01/11 00:29:08;;;;;;;34.22;31.85;;;;;;;;;;5037555;28;20084;-59
2024/01/11 00:31:34;;;;;;;32.55;30.35;;;;;;;;;;5032019;28;20033;-59
2024/01/11 00:33:59;;;;;;;32.03;30.23;;;;;;;;;;5031551;28;20049;-59
2024/01/11 00:36:24;;;;;;;34.97;32.47;;;;;;;;;;5035031;28;20469;-59
2024/01/11 00:38:50;;;;;;;32.67;29.85;;;;;;;;;;5033389;28;20099;-59
2024/01/11 00:41:16;;;;;;;33.70;31.45;;;;;;;;;;5030443;28;20455;-59
2024/01/11 00:43:41;;;;;;;34.05;31.02;;;;;;;;;;5035466;28;20037;-59
2024/01/11 00:46:06;;;;;;;31.42;28.92;;;;;;;;;;5031253;28;20048;-66
2024/01/11 00:48:32;;;;;;;33.58;31.35;;;;;;;;;;5029030;28;20033;-59
2024/01/11 00:50:57;;;;;;;33.15;30.63;;;;;;;;;;5034075;28;20640;-60
2024/01/11 00:53:22;;;;;;;34.05;31.55;;;;;;;;;;5034420;28;20034;-59
2024/01/11 00:55:48;;;;;;;31.30;28.73;;;;;;;;;;5028525;28;20105;-67
2024/01/11 00:58:13;;;;;;;30.58;28.65;;;;;;;;;;5028196;28;20037;-60
2024/01/11 01:00:38;;;;;;;32.33;30.40;;;;;;;;;;5031646;28;20067;-67
2024/01/11 01:03:04;;;;;;;31.85;29.77;;;;;;;;;;5031379;28;20098;-67
2024/01/11 01:05:29;;;;;;;27.10;25.60;;;;;;;;;;5031055;28;20021;-67
2024/01/11 01:07:54;;;;;;;32.20;29.52;;;;;;;;;;5026688;28;20094;-68
2024/01/11 01:10:20;;;;;;;30.48;28.73;;;;;;;;;;5029250;28;20114;-67
2024/01/11 01:12:45;;;;;;;32.65;30.45;;;;;;;;;;5031407;28;20052;-60
2024/01/11 01:15:11;;;;;;;30.58;28.63;;;;;;;;;;5029555;28;20393;-67
2024/01/11 01:17:37;;;;;;;30.23;28.13;;;;;;;;;;5032570;28;20045;-67
2024/01/11 01:20:03;;;;;;;30.23;28.27;;;;;;;;;;5031741;28;20041;-67
2024/01/11 01:22:28;;;;;;;33.28;30.83;;;;;;;;;;5034977;28;20506;-60
2024/01/11 01:24:54;;;;;;;31.65;29.55;;;;;;;;;;5032654;28;20183;-60
2024/01/11 01:27:19;;;;;;;31.02;29.08;;;;;;;;;;5026602;28;20076;-66
2024/01/11 01:29:44;;;;;;;33.75;31.23;;;;;;;;;;5034640;28;20044;-60
2024/01/11 01:32:10;;;;;;;31.00;28.75;;;;;;;;;;5028251;28;20033;-59
2024/01/11 01:34:35;;;;;;;31.85;29.08;;;;;;;;;;5030290;28;20494;-60
2024/01/11 01:37:00;;;;;;;32.10;30.00;;;;;;;;;;5028781;28;20034;-66
2024/01/11 01:39:26;;;;;;;30.08;28.25;;;;;;;;;;5030218;28;20053;-59
2024/01/11 01:41:51;;;;;;;33.38;31.23;;;;;;;;;;5031946;28;20037;-60
2024/01/11 01:44:16;;;;;;;32.75;30.45;;;;;;;;;;5028350;28;20049;-60
2024/01/11 01:46:42;;;;;;;33.15;30.02;;;;;;;;;;5031397;28;20033;-60
2024/01/11 01:49:07;;;;;;;30.88;28.45;;;;;;;;;;5028804;28;20036;-60
2024/01/11 01:51:33;;;;;;;30.95;28.90;;;;;;;;;;5028998;28;20376;-59
2024/01/11 01:54:00;;;;;;;32.47;30.02;;;;;;;;;;5026040;28;20042;-59
2024/01/11 01:56:26;;;;;;;31.13;28.83;;;;;;;;;;5026932;28;23063;-60
2024/01/11 01:58:53;;;;;;;31.83;29.60;;;;;;;;;;5030814;28;20136;-66
2024/01/11 02:01:21;;;;;;;30.95;29.05;;;;;;;;;;5027344;28;20060;-59
2024/01/11 02:03:50;;;;;;;30.60;28.70;;;;;;;;;;5025412;28;20061;-67
2024/01/11 02:06:15;;;;;;;31.10;29.05;;;;;;;;;;5028528;28;20092;-67
2024/01/11 02:08:43;;;;;;;28.77;27.02;;;;;;;;;;5027981;28;20478;-60
2024/01/11 02:11:10;;;;;;;32.38;29.95;;;;;;;;;;5028912;28;20033;-59
2024/01/11 02:13:35;;;;;;;30.65;28.42;;;;;;;;;;5028935;28;20044;-60
2024/01/11 02:16:01;;;;;;;29.70;27.88;;;;;;;;;;5030771;28;20033;-60
2024/01/11 02:18:26;;;;;;;30.58;28.08;;;;;;;;;;5041358;28;20049;-60
2024/01/11 02:20:51;;;;;;;28.67;26.98;;;;;;;;;;5028804;28;20331;-67
2024/01/11 02:23:21;;;;;;;30.50;28.27;;;;;;;;;;5029638;28;20029;-59
2024/01/11 02:25:46;;;;;;;31.45;29.25;;;;;;;;;;5025988;28;20029;-67
2024/01/11 02:28:12;;;;;;;29.65;27.77;;;;;;;;;;5026534;28;20337;-68
2024/01/11 02:30:37;;;;;;;32.42;30.20;;;;;;;;;;5028322;28;20105;-67
2024/01/11 02:33:04;;;;;;;29.92;27.98;;;;;;;;;;5028507;28;20352;-58
2024/01/11 02:35:31;;;;;;;34.38;32.20;;;;;;;;;;5028571;28;20033;-68
2024/01/11 02:37:57;;;;;;;30.50;28.65;;;;;;;;;;5030589;28;20064;-68
2024/01/11 02:40:22;;;;;;;31.95;29.77;;;;;;;;;;5029347;28;20060;-68
2024/01/11 02:42:48;;;;;;;30.25;28.40;;;;;;;;;;5030338;28;20030;-69
2024/01/11 02:45:13;;;;;;;31.50;29.33;;;;;;;;;;5028446;28;20037;-69
2024/01/11 02:47:39;;;;;;;32.53;30.15;;;;;;;;;;5031289;28;20455;-67
2024/01/11 02:50:07;;;;;;;33.30;30.83;;;;;;;;;;5031890;28;20111;-67
2024/01/11 02:52:32;;;;;;;34.08;31.42;;;;;;;;;;5028065;28;20179;-58
2024/01/11 02:54:58;;;;;;;33.75;31.60;;;;;;;;;;5030108;28;20025;-58
2024/01/11 02:57:23;;;;;;;31.58;29.63;;;;;;;;;;5025560;28;20447;-68
2024/01/11 02:59:49;;;;;;;29.85;27.98;;;;;;;;;;5026756;28;20049;-68
2024/01/11 03:02:14;;;;;;;30.67;28.85;;;;;;;;;;5028122;28;20102;-59
2024/01/11 03:04:40;;;;;;;31.70;29.75;;;;;;;;;;5027129;28;20451;-65
2024/01/11 03:07:05;;;;;;;31.67;29.55;;;;;;;;;;5031941;28;20478;-67
2024/01/11 03:09:30;;;;;;;33.63;31.05;;;;;;;;;;5027331;28;20064;-67
2024/01/11 03:11:56;;;;;;;34.08;31.85;;;;;;;;;;5026494;28;20032;-66
2024/01/11 03:14:21;;;;;;;33.05;31.05;;;;;;;;;;5025943;28;20070;-66
2024/01/11 03:16:46;;;;;;;31.25;29.55;;;;;;;;;;5027628;28;20204;-67
2024/01/11 03:19:11;;;;;;;34.63;32.53;;;;;;;;;;5026998;28;20121;-66
2024/01/11 03:21:43;;;;;;;34.70;32.35;;;;;;;;;;5032284;28;20047;-67
2024/01/11 03:24:09;;;;;;;33.83;31.25;;;;;;;;;;5028459;28;20048;-67
2024/01/11 03:26:34;;;;;;;32.28;29.23;;;;;;;;;;5027479;28;20025;-67
2024/01/11 03:28:59;;;;;;;32.55;30.33;;;;;;;;;;5032020;28;20798;-67
2024/01/11 03:31:25;;;;;;;34.95;32.35;;;;;;;;;;5029733;28;20129;-66
2024/01/11 03:33:50;;;;;;;28.58;26.98;;;;;;;;;;5029963;28;20037;-66
2024/01/11 03:36:15;;;;;;;33.20;31.27;;;;;;;;;;5029076;28;20043;-65
2024/01/11 03:38:41;;;;;;;33.03;30.92;;;;;;;;;;5031491;28;20033;-65
2024/01/11 03:41:09;;;;;;;37.53;34.78;;;;;;;;;;5028116;28;20407;-65
2024/01/11 03:43:35;;;;;;;36.28;33.85;;;;;;;;;;5033769;28;20045;-65
2024/01/11 03:46:01;;;;;;;35.60;33.22;;;;;;;;;;5034175;28;20043;-65
2024/01/11 03:48:26;;;;;;;32.35;30.45;;;;;;;;;;5031622;28;20526;-65
2024/01/11 03:50:52;;;;;;;33.33;31.17;;;;;;;;;;5032942;28;20029;-64
2024/01/11 03:53:17;;;;;;;34.05;31.55;;;;;;;;;;5031754;28;20551;-65
2024/01/11 03:55:42;;;;;;;35.58;33.15;;;;;;;;;;5030294;28;20048;-65
2024/01/11 03:58:08;;;;;;;36.72;34.35;;;;;;;;;;5038787;28;20041;-58
2024/01/11 04:00:33;;;;;;;35.40;33.00;;;;;;;;;;5033317;28;20124;-58
2024/01/11 04:02:59;;;;;;;36.83;34.03;;;;;;;;;;5032222;28;20072;-58
2024/01/11 04:05:24;;;;;;;36.47;34.28;;;;;;;;;;5033258;28;20036;-67
2024/01/11 04:07:49;;;;;;;34.60;32.22;;;;;;;;;;5034519;28;20459;-67
2024/01/11 04:10:17;;;;;;;35.20;32.10;;;;;;;;;;5031174;28;20041;-67
2024/01/11 04:12:42;;;;;;;33.28;31.17;;;;;;;;;;5027422;28;20430;-66
2024/01/11 04:15:08;;;;;;;32.78;30.83;;;;;;;;;;5035475;28;20037;-59
2024/01/11 04:17:33;;;;;;;36.42;33.45;;;;;;;;;;5029553;28;20037;-59
2024/01/11 04:19:59;;;;;;;33.20;31.10;;;;;;;;;;5030251;28;20521;-59
2024/01/11 04:22:24;;;;;;;35.72;33.20;;;;;;;;;;5029641;28;20036;-58
2024/01/11 04:24:49;;;;;;;32.83;30.83;;;;;;;;;;5032350;28;20020;-67
2024/01/11 04:27:15;;;;;;;33.80;31.80;;;;;;;;;;5030973;28;20036;-66
2024/01/11 04:29:40;;;;;;;34.80;32.42;;;;;;;;;;5035548;28;20110;-66
2024/01/11 04:32:05;;;;;;;34.38;31.65;;;;;;;;;;5033205;28;20456;-66
2024/01/11 04:34:31;;;;;;;33.83;31.65;;;;;;;;;;5033484;28;20037;-67
2024/01/11 04:36:56;;;;;;;33.92;31.85;;;;;;;;;;5034816;28;20060;-67
2024/01/11 04:39:21;;;;;;;35.35;32.85;;;;;;;;;;5026997;28;20033;-67
2024/01/11 04:41:47;;;;;;;33.60;31.20;;;;;;;;;;5030403;28;20041;-67
2024/01/11 04:44:13;;;;;;;32.13;30.08;;;;;;;;;;5028161;28;20121;-67
2024/01/11 04:46:38;;;;;;;32.10;30.30;;;;;;;;;;5027846;28;20259;-58
2024/01/11 04:49:03;;;;;;;31.38;29.55;;;;;;;;;;5027225;28;20033;-58
2024/01/11 04:51:29;;;;;;;32.63;30.25;;;;;;;;;;5031882;28;20031;-58
2024/01/11 04:53:54;;;;;;;34.53;32.28;;;;;;;;;;5029839;28;20689;-59
2024/01/11 04:56:20;;;;;;;32.75;30.55;;;;;;;;;;5028827;28;20041;-59
2024/01/11 04:58:45;;;;;;;31.42;29.30;;;;;;;;;;5032361;28;20046;-59
2024/01/11 05:01:15;;;;;;;32.53;29.52;;;;;;;;;;5029770;28;20385;-59
2024/01/11 05:03:41;;;;;;;34.67;32.60;;;;;;;;;;5029241;28;20108;-67
2024/01/11 05:06:06;;;;;;;31.83;29.92;;;;;;;;;;5029721;28;20251;-58
2024/01/11 05:08:32;;;;;;;29.05;27.08;;;;;;;;;;5033179;28;20478;-58
2024/01/11 05:10:57;;;;;;;29.90;28.00;;;;;;;;;;5032671;28;20061;-57
2024/01/11 05:13:22;;;;;;;33.30;31.08;;;;;;;;;;5026414;28;20115;-58
2024/01/11 05:15:48;;;;;;;31.48;29.50;;;;;;;;;;5032634;28;20340;-58
2024/01/11 05:18:14;;;;;;;30.55;28.25;;;;;;;;;;5031364;28;20037;-57
2024/01/11 05:20:39;;;;;;;30.08;28.15;;;;;;;;;;5027949;28;20064;-59
2024/01/11 05:23:05;;;;;;;33.95;31.63;;;;;;;;;;5028697;28;20050;-59
2024/01/11 05:25:33;;;;;;;33.28;31.10;;;;;;;;;;5030656;28;20095;-58
2024/01/11 05:28:03;;;;;;;32.38;30.10;;;;;;;;;;5035381;28;20099;-58
2024/01/11 05:30:28;;;;;;;32.85;30.85;;;;;;;;;;5033557;28;20044;-58
2024/01/11 05:32:54;;;;;;;30.52;28.42;;;;;;;;;;5027843;28;20045;-59
2024/01/11 05:35:20;;;;;;;35.70;32.15;;;;;;;;;;5030289;28;20033;-59
2024/01/11 05:37:46;;;;;;;33.80;31.38;;;;;;;;;;5027126;28;20052;-59
2024/01/11 05:40:11;;;;;;;31.55;29.52;;;;;;;;;;5031878;28;20061;-59
2024/01/11 05:42:37;;;;;;;32.53;30.63;;;;;;;;;;5028648;28;20478;-58
2024/01/11 05:45:04;;;;;;;28.02;26.30;;;;;;;;;;5030734;28;20156;-58
2024/01/11 05:47:30;;;;;;;37.28;34.63;;;;;;;;;;5030822;28;20075;-58
2024/01/11 05:49:55;;;;;;;33.50;31.08;;;;;;;;;;5028555;28;20861;-58
2024/01/11 05:52:20;;;;;;;30.38;28.48;;;;;;;;;;5029097;28;20033;-59
2024/01/11 05:54:47;;;;;;;29.63;27.83;;;;;;;;;;5026577;28;20442;-59
2024/01/11 05:57:12;;;;;;;29.55;27.85;;;;;;;;;;5030371;28;20418;-58
2024/01/11 05:59:37;;;;;;;29.42;27.25;;;;;;;;;;5030251;28;20033;-58
2024/01/11 06:02:03;;;;;;;30.55;28.65;;;;;;;;;;5031548;28;20489;-58
2024/01/11 06:04:28;;;;;;;32.38;30.13;;;;;;;;;;5029860;28;20107;-58
2024/01/11 06:06:53;;;;;;;33.00;30.80;;;;;;;;;;5028475;28;20474;-59
2024/01/11 06:09:19;;;;;;;35.80;32.90;;;;;;;;;;5029088;28;20199;-59
2024/01/11 06:11:44;;;;;;;32.70;30.25;;;;;;;;;;5029501;28;20510;-58
2024/01/11 06:14:09;;;;;;;28.83;26.90;;;;;;;;;;5028805;28;20427;-58
2024/01/11 06:16:35;;;;;;;33.47;30.83;;;;;;;;;;5029173;28;20040;-59
2024/01/11 06:19:00;;;;;;;33.20;30.80;;;;;;;;;;5035504;28;20042;-58
2024/01/11 06:21:26;;;;;;;28.63;26.95;;;;;;;;;;5035438;28;20106;-67
2024/01/11 06:23:51;;;;;;;32.75;30.25;;;;;;;;;;5028538;28;20123;-65
2024/01/11 06:26:16;;;;;;;30.75;28.75;;;;;;;;;;5029233;28;20496;-66
2024/01/11 06:28:42;;;;;;;31.80;29.58;;;;;;;;;;5028087;28;20036;-57
2024/01/11 06:31:10;;;;;;;31.35;27.95;;;;;;;;;;5028295;28;20055;-58
2024/01/11 06:33:36;;;;;;;31.10;28.23;;;;;;;;;;5028272;28;20037;-58
2024/01/11 06:36:04;;;;;;;29.75;27.85;;;;;;;;;;5033134;28;20041;-59
2024/01/11 06:38:30;;;;;;;33.63;30.67;;;;;;;;;;5026557;28;20120;-65
2024/01/11 06:40:55;;;;;;;29.52;27.60;;;;;;;;;;5027617;28;20136;-65
2024/01/11 06:43:20;;;;;;;29.73;27.55;;;;;;;;;;5028896;28;20418;-59
2024/01/11 06:45:46;;;;;;;29.83;27.92;;;;;;;;;;5024860;28;20025;-59
2024/01/11 06:48:11;;;;;;;32.20;29.42;;;;;;;;;;5026646;28;20187;-59
2024/01/11 06:50:36;;;;;;;31.08;28.98;;;;;;;;;;5024858;28;20463;-59
2024/01/11 06:53:02;;;;;;;30.42;28.00;;;;;;;;;;5032407;28;20062;-59
2024/01/11 06:55:28;;;;;;;29.65;27.48;;;;;;;;;;5023196;28;20052;-60
2024/01/11 06:57:53;;;;;;;30.15;28.25;;;;;;;;;;5030179;28;20029;-58
2024/01/11 07:00:19;;;;;;;29.33;27.42;;;;;;;;;;5029470;28;20065;-59
2024/01/11 07:02:44;;;;;;;31.95;29.10;;;;;;;;;;5027369;28;20022;-60
2024/01/11 07:05:10;;;;;;;28.58;26.60;;;;;;;;;;5031079;28;20406;-60
2024/01/11 07:07:35;;;;;;;30.98;28.10;;;;;;;;;;5030558;28;20714;-59
2024/01/11 07:10:01;;;;;;;31.95;29.80;;;;;;;;;;5028389;28;20037;-58
2024/01/11 07:12:26;;;;;;;31.30;29.23;;;;;;;;;;5026176;28;20029;-60
2024/01/11 07:14:51;;;;;;;30.85;28.63;;;;;;;;;;5032747;28;20114;-59
2024/01/11 07:17:17;;;;;;;29.70;27.92;;;;;;;;;;5031542;28;20029;-60
2024/01/11 07:19:42;;;;;;;29.25;27.15;;;;;;;;;;5030019;28;20116;-59
2024/01/11 07:22:08;;;;;;;31.73;29.55;;;;;;;;;;5028730;28;20043;-58
2024/01/11 07:24:37;;;;;;;30.95;28.42;;;;;;;;;;5027902;28;20375;-59
2024/01/11 07:27:06;;;;;;;30.30;27.85;;;;;;;;;;5031793;28;20113;-60
2024/01/11 07:29:32;;;;;;;31.45;29.30;;;;;;;;;;5028173;28;20037;-59
2024/01/11 07:31:58;;;;;;;32.28;30.23;;;;;;;;;;5030306;28;20057;-60
2024/01/11 07:34:24;;;;;;;28.70;26.90;;;;;;;;;;5025885;28;20368;-59
2024/01/11 07:36:49;;;;;;;28.63;26.85;;;;;;;;;;5027979;28;20029;-59
2024/01/11 07:39:15;;;;;;;29.02;26.95;;;;;;;;;;5026329;28;20043;-59
2024/01/11 07:41:40;;;;;;;30.30;28.05;;;;;;;;;;5033496;28;20566;-59
2024/01/11 07:44:06;;;;;;;32.92;30.55;;;;;;;;;;5031487;28;20483;-59
2024/01/11 07:46:31;;;;;;;30.65;28.65;;;;;;;;;;5032535;28;20471;-60
2024/01/11 07:48:56;;;;;;;30.95;29.02;;;;;;;;;;5032075;28;20115;-60
2024/01/11 07:51:22;;;;;;;30.85;28.95;;;;;;;;;;5033480;28;20031;-60
2024/01/11 07:53:47;;;;;;;30.27;27.83;;;;;;;;;;5031211;28;20037;-59
2024/01/11 07:56:13;;;;;;;33.45;31.25;;;;;;;;;;5030570;28;20467;-59
2024/01/11 07:58:41;;;;;;;32.30;29.13;;;;;;;;;;5031673;28;20496;-59
2024/01/11 08:01:06;;;;;;;34.97;31.83;;;;;;;;;;5034358;28;20033;-59
2024/01/11 08:03:34;;;;;;;29.05;27.30;;;;;;;;;;5032000;28;20040;-57
2024/01/11 08:06:00;;;;;;;32.80;29.67;;;;;;;;;;5029816;28;20493;-58
2024/01/11 08:08:26;;;;;;;32.92;30.85;;;;;;;;;;5033419;28;20142;-58
2024/01/11 08:10:51;;;;;;;31.88;29.63;;;;;;;;;;5031493;28;20037;-58
2024/01/11 08:13:17;;;;;;;32.30;30.25;;;;;;;;;;5028679;28;20487;-58
2024/01/11 08:15:43;;;;;;;34.25;31.85;;;;;;;;;;5031694;28;20078;-58
2024/01/11 08:18:08;;;;;;;32.75;30.45;;;;;;;;;;5032863;28;20042;-58
2024/01/11 08:20:34;;;;;;;33.72;31.15;;;;;;;;;;5028698;28;20025;-58
2024/01/11 08:22:59;;;;;;;36.75;34.38;;;;;;;;;;5032244;28;20037;-58
2024/01/11 08:25:24;;;;;;;32.80;30.60;;;;;;;;;;5032197;28;20029;-58
2024/01/11 08:27:50;;;;;;;40.42;37.28;;;;;;;;;;5033398;28;20363;-58
2024/01/11 08:30:15;;;;;;;36.42;34.05;;;;;;;;;;5030335;28;20067;-59
2024/01/11 08:32:41;;;;;;;37.55;35.15;;;;;;;;;;5028423;28;20121;-58
2024/01/11 08:35:09;;;;;;;33.78;31.65;;;;;;;;;;5029825;28;20037;-58
2024/01/11 08:37:36;;;;;;;32.88;30.83;;;;;;;;;;5029293;28;20092;-56
2024/01/11 08:40:04;;;;;;;36.40;34.08;;;;;;;;;;5036057;28;20253;-59
2024/01/11 08:42:30;;;;;;;35.70;33.33;;;;;;;;;;5030212;28;20095;-58
2024/01/11 08:44:55;;;;;;;33.17;30.40;;;;;;;;;;5030070;28;20026;-58
2024/01/11 08:47:20;;;;;;;33.05;31.02;;;;;;;;;;5030764;28;20474;-58
2024/01/11 08:49:46;;;;;;;33.28;30.67;;;;;;;;;;5028533;28;20124;-59
2024/01/11 08:52:11;;;;;;;35.88;33.67;;;;;;;;;;5033570;28;20037;-59
2024/01/11 08:54:36;;;;;;;39.80;36.83;;;;;;;;;;5026987;28;20029;-59
2024/01/11 08:57:03;;;;;;;39.00;36.65;;;;;;;;;;5030842;28;20065;-59
2024/01/11 08:59:28;;;;;;;39.00;36.55;;;;;;;;;;5026557;28;20083;-66
2024/01/11 09:01:53;;;;;;;41.08;38.40;;;;;;;;;;5031133;28;20036;-59
2024/01/11 09:04:19;;;;;;;41.13;37.78;;;;;;;;;;5030126;28;20179;-59
2024/01/11 09:06:44;;;;;;;40.97;37.97;;;;;;;;;;5033005;28;20038;-67
2024/01/11 09:09:13;;;;;;;41.20;38.78;;;;;;;;;;5025168;28;20456;-59
2024/01/11 09:11:39;;;;;;;42.05;39.25;;;;;;;;;;5012945;28;20411;-59
2024/01/11 09:14:06;;;;;;;39.65;36.78;;;;;;;;;;5028433;28;20037;-59
2024/01/11 09:16:31;;;;;;;39.78;37.28;;;;;;;;;;5027769;28;20443;-67
2024/01/11 09:18:56;;;;;;;43.20;39.78;;;;;;;;;;5029456;28;20260;-66
2024/01/11 09:21:22;;;;;;;36.85;34.63;;;;;;;;;;5028175;28;20448;-66
2024/01/11 09:23:47;;;;;;;41.50;38.25;;;;;;;;;;5028907;28;20041;-68
2024/01/11 09:26:13;;;;;;;39.90;37.17;;;;;;;;;;5027187;28;20028;-67
2024/01/11 09:28:38;;;;;;;38.53;36.22;;;;;;;;;;5027296;28;20242;-67
2024/01/11 09:31:03;;;;;;;36.20;34.00;;;;;;;;;;5026609;28;20076;-66
2024/01/11 09:33:29;;;;;;;39.58;36.65;;;;;;;;;;5026101;28;20040;-68
2024/01/11 09:35:56;;;;;;;37.38;34.40;;;;;;;;;;5026156;28;20547;-68
2024/01/11 09:38:27;;;;;;;34.85;32.35;;;;;;;;;;5046193;28;20850;-68
2024/01/11 09:41:04;;;;;;;36.33;33.00;;;;;;;;;;5045824;28;20048;-68
2024/01/11 09:43:33;;;;;;;36.80;34.40;;;;;;;;;;5049789;28;20040;-68
2024/01/11 09:45:59;;;;;;;34.03;31.75;;;;;;;;;;5044432;28;20126;-68
2024/01/11 09:48:25;;;;;;;33.08;30.95;;;;;;;;;;5045769;28;20041;-68
2024/01/11 09:50:52;;;;;;;31.85;29.70;;;;;;;;;;5044097;28;20419;-68
2024/01/11 09:53:20;;;;;;;32.60;30.23;;;;;;;;;;5047414;28;20378;-69
2024/01/11 09:55:46;;;;;;;34.97;31.98;;;;;;;;;;5045595;28;20439;-68
2024/01/11 09:58:13;;;;;;;36.92;33.92;;;;;;;;;;5046668;28;20102;-69
2024/01/11 10:00:40;;;;;;;30.73;28.60;;;;;;;;;;5048787;28;20351;-68
2024/01/11 10:03:06;;;;;;;31.90;29.60;;;;;;;;;;5046036;28;20503;-60
2024/01/11 10:05:34;;;;;;;32.13;29.83;;;;;;;;;;5048731;28;20166;-60
2024/01/11 10:07:59;;;;;;;35.25;32.47;;;;;;;;;;5046927;28;20026;-69
2024/01/11 10:10:25;;;;;;;34.72;32.15;;;;;;;;;;5045956;28;20114;-69
2024/01/11 10:12:51;;;;;;;32.83;30.42;;;;;;;;;;5046257;28;20037;-68
2024/01/11 10:15:16;;;;;;;34.33;31.35;;;;;;;;;;5045703;28;20043;-68
2024/01/11 10:17:47;;;;;;;33.45;30.83;;;;;;;;;;5051131;28;20029;-69
2024/01/11 10:20:13;;;;;;;;;;;;;;;;;;5047580;28;20044;-69
2024/01/11 10:22:43;;;;;;;31.67;29.48;;;;;;;;;;5044123;28;19916;-69
2024/01/11 10:25:10;;;;;;;32.17;30.15;;;;;;;;;;5078994;28;20080;-69
2024/01/11 10:27:36;;;;;;;33.47;30.60;;;;;;;;;;5048924;28;20093;-69
2024/01/11 10:30:02;;;;;;;32.33;30.08;;;;;;;;;;5048081;28;20040;-69
2024/01/11 10:32:28;;;;;;;32.03;29.95;;;;;;;;;;5045539;28;20037;-68
2024/01/11 10:34:54;;;;;;;32.33;30.17;;;;;;;;;;5047132;28;20421;-69
2024/01/11 10:37:21;;;;;;;33.92;31.17;;;;;;;;;;5044871;28;20041;-69
2024/01/11 10:39:50;;;;;;;32.13;30.17;;;;;;;;;;5045582;28;20036;-69
2024/01/11 10:42:19;;;;;;;31.65;29.63;;;;;;;;;;5047289;28;20044;-69
2024/01/11 10:44:48;;;;;;;33.05;30.85;;;;;;;;;;5047376;28;20032;-69
2024/01/11 10:47:15;;;;;;;32.25;30.10;;;;;;;;;;5046717;28;20472;-69
2024/01/11 10:49:44;;;;;;;31.58;29.67;;;;;;;;;;5026474;28;20037;-69
2024/01/11 10:52:13;;;;;;;30.20;28.20;;;;;;;;;;5032378;28;20233;-69
2024/01/11 10:54:41;;;;;;;30.10;28.27;;;;;;;;;;5034674;28;20386;-68
2024/01/11 10:57:07;;;;;;;31.00;28.67;;;;;;;;;;5034727;28;20317;-68
2024/01/11 10:59:35;;;;;;;30.10;28.33;;;;;;;;;;5065808;28;20025;-68
2024/01/11 11:02:06;;;;;;;28.85;26.95;;;;;;;;;;5029946;28;20036;-68
2024/01/11 11:04:34;;;;;;;30.50;28.25;;;;;;;;;;5031950;28;20415;-68
2024/01/11 11:07:02;;;;;;;31.60;29.65;;;;;;;;;;5034280;28;20076;-68
2024/01/11 11:09:28;;;;;;;29.70;27.60;;;;;;;;;;5033519;28;20135;-68
2024/01/11 11:11:57;;;;;;;31.42;29.30;;;;;;;;;;5032574;28;20029;-68
2024/01/11 11:14:24;;;;;;;33.85;31.42;;;;;;;;;;5031980;28;20029;-68
2024/01/11 11:16:51;;;;;;;30.10;28.10;;;;;;;;;;5032731;28;20021;-68
2024/01/11 11:19:19;;;;;;;30.45;28.05;;;;;;;;;;5034546;28;20092;-68
2024/01/11 11:21:45;;;;;;;32.35;30.17;;;;;;;;;;5032043;28;20086;-68
2024/01/11 11:24:13;;;;;;;31.02;28.55;;;;;;;;;;5031883;28;20621;-68
2024/01/11 11:26:38;;;;;;;31.00;28.58;;;;;;;;;;5033275;28;20045;-67
2024/01/11 11:29:05;;;;;;;29.52;27.27;;;;;;;;;;5031910;28;20044;-68
2024/01/11 11:31:38;;;;;;;27.55;25.85;;;;;;;;;;5033005;28;20041;-68
2024/01/11 11:34:04;;;;;;;26.73;25.05;;;;;;;;;;5033031;28;20112;-68
2024/01/11 11:36:30;;;;;;;28.35;26.45;;;;;;;;;;5036407;28;20379;-69
2024/01/11 11:39:00;;;;;;;30.13;28.13;;;;;;;;;;5031532;28;20033;-68
2024/01/11 11:41:26;;;;;;;29.98;27.88;;;;;;;;;;5035140;28;20036;-68
2024/01/11 11:43:51;;;;;;;29.23;27.23;;;;;;;;;;5033465;28;20060;-68
2024/01/11 11:46:17;;;;;;;28.75;26.88;;;;;;;;;;5035816;28;20451;-68
2024/01/11 11:48:45;;;;;;;31.95;29.30;;;;;;;;;;5030153;28;20524;-68
2024/01/11 11:51:13;;;;;;;26.73;25.13;;;;;;;;;;5029365;28;20124;-68
2024/01/11 11:53:39;;;;;;;30.88;28.65;;;;;;;;;;5034579;28;20295;-68
2024/01/11 11:56:06;;;;;;;27.92;25.92;;;;;;;;;;5032316;28;20047;-68
2024/01/11 11:58:34;;;;;;;31.38;29.20;;;;;;;;;;5034062;28;20466;-68
2024/01/11 12:01:00;;;;;;;30.50;28.48;;;;;;;;;;5030122;28;20032;-68
2024/01/11 12:03:39;;;;;;;30.33;27.80;;;;;;;;;;5033516;28;20111;-69
2024/01/11 12:06:10;;;;;;;29.20;27.27;;;;;;;;;;5033307;28;20036;-68
2024/01/11 12:08:36;;;;;;;28.35;26.35;;;;;;;;;;5031949;28;20376;-69
2024/01/11 12:11:02;;;;;;;31.33;28.48;;;;;;;;;;5034123;28;20052;-69
2024/01/11 12:13:28;;;;;;;31.30;28.88;;;;;;;;;;5028000;28;20041;-69
2024/01/11 12:15:53;;;;;;;28.27;26.23;;;;;;;;;;5034135;28;20037;-69
2024/01/11 12:18:19;;;;;;;27.27;25.63;;;;;;;;;;5033587;28;20474;-69
2024/01/11 12:20:45;;;;;;;28.63;26.75;;;;;;;;;;5031108;28;20467;-69
2024/01/11 12:23:10;;;;;;;27.05;25.05;;;;;;;;;;5032058;28;20123;-70
2024/01/11 12:25:36;;;;;;;29.65;27.38;;;;;;;;;;5032916;28;20124;-70
2024/01/11 12:28:02;;;;;;;28.83;26.50;;;;;;;;;;5031191;28;20052;-70
2024/01/11 12:30:29;;;;;;;26.73;24.88;;;;;;;;;;5032809;28;20030;-71
2024/01/11 12:32:55;;;;;;;27.30;25.48;;;;;;;;;;5032501;28;20212;-71
2024/01/11 12:35:21;;;;;;;26.88;24.92;;;;;;;;;;5033374;28;20036;-70
2024/01/11 12:37:59;;;;;;;27.10;25.13;;;;;;;;;;5029911;28;20045;-69
2024/01/11 12:40:27;;;;;;;30.50;28.40;;;;;;;;;;5031711;28;20362;-65
2024/01/11 12:42:52;;;;;;;28.20;26.30;;;;;;;;;;5030034;28;20088;-65
2024/01/11 12:45:18;;;;;;;26.67;24.88;;;;;;;;;;5034540;28;20044;-64
2024/01/11 12:47:44;;;;;;;28.65;26.77;;;;;;;;;;5032609;28;20080;-64
2024/01/11 12:50:09;;;;;;;25.88;24.17;;;;;;;;;;5029948;28;20044;-65
2024/01/11 12:52:35;;;;;;;25.00;23.27;;;;;;;;;;5033482;28;20033;-65
2024/01/11 12:55:00;;;;;;;27.55;25.65;;;;;;;;;;5028160;28;20041;-65
2024/01/11 12:57:26;;;;;;;27.20;25.50;;;;;;;;;;5031347;28;20052;-65
2024/01/11 12:59:52;;;;;;;26.80;25.02;;;;;;;;;;5028960;28;20094;-65
2024/01/11 13:02:17;;;;;;;28.23;26.02;;;;;;;;;;5029189;28;20041;-65
2024/01/11 13:04:45;;;;;;;29.67;27.35;;;;;;;;;;5033362;28;20033;-65
2024/01/11 13:07:11;;;;;;;28.50;26.17;;;;;;;;;;5031987;28;20028;-66
2024/01/11 13:09:36;;;;;;;26.38;24.75;;;;;;;;;;5029596;28;20033;-66
2024/01/11 13:12:02;;;;;;;28.90;26.92;;;;;;;;;;5032700;28;20029;-66
2024/01/11 13:14:28;;;;;;;31.85;29.60;;;;;;;;;;5035082;28;20104;-66
2024/01/11 13:16:54;;;;;;;28.25;26.30;;;;;;;;;;5028070;28;20471;-67
2024/01/11 13:19:19;;;;;;;26.48;24.67;;;;;;;;;;5030934;28;20041;-67
2024/01/11 13:21:45;;;;;;;27.40;25.52;;;;;;;;;;5029562;28;20029;-67
2024/01/11 13:24:11;;;;;;;26.05;24.20;;;;;;;;;;5026235;28;20037;-67
2024/01/11 13:26:40;;;;;;;26.55;24.92;;;;;;;;;;5029572;28;20037;-67
2024/01/11 13:29:05;;;;;;;28.70;27.00;;;;;;;;;;5031016;28;20091;-67
2024/01/11 13:31:32;;;;;;;27.05;25.45;;;;;;;;;;5030658;28;20037;-68
2024/01/11 13:33:57;;;;;;;28.95;26.90;;;;;;;;;;5029916;28;20473;-67
2024/01/11 13:36:23;;;;;;;27.98;26.33;;;;;;;;;;5032667;28;20044;-68
2024/01/11 13:38:50;;;;;;;29.70;27.77;;;;;;;;;;5030250;28;20061;-68
2024/01/11 13:41:16;;;;;;;27.50;25.55;;;;;;;;;;5029965;28;20095;-68
2024/01/11 13:43:42;;;;;;;30.65;28.83;;;;;;;;;;5030952;28;20387;-68
2024/01/11 13:46:08;;;;;;;29.38;27.48;;;;;;;;;;5031260;28;20068;-68
2024/01/11 13:48:34;;;;;;;29.38;27.33;;;;;;;;;;5027464;28;20102;-68
2024/01/11 13:51:00;;;;;;;29.02;27.30;;;;;;;;;;5031055;28;20044;-68
2024/01/11 13:53:25;;;;;;;29.25;27.30;;;;;;;;;;5031862;28;20049;-68
2024/01/11 13:55:51;;;;;;;29.38;27.48;;;;;;;;;;5029003;28;20029;-68
2024/01/11 13:58:17;;;;;;;28.40;26.50;;;;;;;;;;5029383;28;20044;-67
2024/01/11 14:00:44;;;;;;;31.33;29.42;;;;;;;;;;5062307;28;20032;-68
2024/01/11 14:03:10;;;;;;;32.15;30.25;;;;;;;;;;5026619;28;20525;-68
2024/01/11 14:05:37;;;;;;;32.40;30.40;;;;;;;;;;5030507;28;20032;-68
2024/01/11 14:08:05;;;;;;;32.15;30.30;;;;;;;;;;5030025;28;20467;-69
2024/01/11 14:10:32;;;;;;;30.88;29.08;;;;;;;;;;5041591;28;20055;-69